createdAt,value
2023-01-29T00:04:19.801Z,19.0
2023-01-29T00:09:26.016Z,18.0
2023-01-29T00:14:32.207Z,18.0
2023-01-29T00:19:38.418Z,19.0
2023-01-29T00:24:44.626Z,18.0
2023-01-29T00:29:50.848Z,18.0
2023-01-29T00:34:57.053Z,18.0
2023-01-29T00:40:03.248Z,17.0
2023-01-29T00:45:09.452Z,17.0
2023-01-29T00:50:16.009Z,18.0
2023-01-29T00:55:21.872Z,17.0
2023-01-29T01:00:28.079Z,16.5
2023-01-29T01:05:34.286Z,16.0
2023-01-29T01:10:40.492Z,16.0
2023-01-29T01:15:46.850Z,16.0
2023-01-29T01:20:52.903Z,16.0
2023-01-29T01:25:59.112Z,17.0
2023-01-29T01:31:05.440Z,17.0
2023-01-29T01:36:11.528Z,17.0
2023-01-29T01:41:16.763Z,17.0
2023-01-29T01:46:23.010Z,16.5
2023-01-29T01:51:28.206Z,17.0
2023-01-29T01:56:33.427Z,18.0
2023-01-29T02:01:39.642Z,18.0
2023-01-29T02:06:45.839Z,17.0
2023-01-29T02:11:52.061Z,18.0
2023-01-29T02:16:58.254Z,18.0
2023-01-29T02:22:04.513Z,18.0
2023-01-29T02:27:10.668Z,18.0
2023-01-29T02:32:16.876Z,18.5
2023-01-29T02:37:23.089Z,20.0
2023-01-29T02:42:29.289Z,19.0
2023-01-29T02:47:35.495Z,20.0
2023-01-29T02:52:41.702Z,20.0
2023-01-29T02:57:47.912Z,20.0
2023-01-29T03:02:54.119Z,21.0
2023-01-29T03:08:00.328Z,22.0
2023-01-29T03:13:06.532Z,22.0
2023-01-29T03:18:12.743Z,23.0
2023-01-29T03:23:18.949Z,23.0
2023-01-29T03:28:25.144Z,24.0
2023-01-29T03:33:31.371Z,23.0
2023-01-29T03:38:36.591Z,23.0
2023-01-29T03:43:42.810Z,23.0
2023-01-29T03:48:48.034Z,24.0
2023-01-29T03:53:54.243Z,23.0
2023-01-29T03:59:00.449Z,23.0
2023-01-29T04:04:06.742Z,24.0
2023-01-29T04:09:12.939Z,23.0
2023-01-29T04:14:19.064Z,25.0
2023-01-29T04:19:25.282Z,24.0
2023-01-29T04:24:31.590Z,24.0
2023-01-29T04:29:37.697Z,25.0
2023-01-29T04:34:43.900Z,25.0
2023-01-29T04:39:50.122Z,26.0
2023-01-29T04:44:56.330Z,25.0
2023-01-29T04:50:02.516Z,25.0
2023-01-29T04:55:08.735Z,25.0
2023-01-29T05:00:15.415Z,24.0
2023-01-29T05:05:21.139Z,24.0
2023-01-29T05:10:27.343Z,24.0
2023-01-29T05:15:33.550Z,25.0
2023-01-29T05:20:39.759Z,24.0
2023-01-29T05:25:45.964Z,25.0
2023-01-29T05:30:52.267Z,24.0
2023-01-29T05:35:57.409Z,24.0
2023-01-29T05:41:03.616Z,24.0
2023-01-29T05:46:08.865Z,24.0
2023-01-29T05:51:15.054Z,24.0
2023-01-29T05:56:21.272Z,24.0
2023-01-29T06:01:27.472Z,25.0
2023-01-29T06:06:33.685Z,25.0
2023-01-29T06:11:39.893Z,24.0
2023-01-29T06:16:46.086Z,24.0
2023-01-29T06:21:52.301Z,24.0
2023-01-29T06:26:58.502Z,24.0
2023-01-29T06:32:04.886Z,25.0
2023-01-29T06:37:10.931Z,24.0
2023-01-29T06:42:17.143Z,25.0
2023-01-29T06:47:23.342Z,25.0
2023-01-29T06:52:29.540Z,26.0
2023-01-29T06:57:35.747Z,25.0
2023-01-29T07:02:41.960Z,26.0
2023-01-29T07:07:48.164Z,26.0
2023-01-29T07:12:54.373Z,27.0
2023-01-29T07:18:00.581Z,27.0
2023-01-29T07:23:06.791Z,27.0
2023-01-29T07:28:12.993Z,26.0
2023-01-29T07:33:18.230Z,26.0
2023-01-29T07:38:24.430Z,26.0
2023-01-29T07:43:29.668Z,27.0
2023-01-29T07:48:35.904Z,26.0
2023-01-29T07:53:42.087Z,26.0
2023-01-29T07:58:48.295Z,25.0
2023-01-29T08:03:54.519Z,26.0
2023-01-29T08:09:00.793Z,26.0
2023-01-29T08:14:06.917Z,25.0
2023-01-29T08:19:13.189Z,26.0
2023-01-29T08:24:19.366Z,26.0
2023-01-29T08:29:25.546Z,25.0
2023-01-29T08:34:31.761Z,26.0
2023-01-29T08:39:37.954Z,25.0
2023-01-29T08:44:44.188Z,25.0
2023-01-29T08:49:50.365Z,25.0
2023-01-29T08:54:56.618Z,25.0
2023-01-29T09:00:02.781Z,25.0
2023-01-29T09:05:08.991Z,26.0
2023-01-29T09:10:15.215Z,25.5
2023-01-29T09:15:21.405Z,25.0
2023-01-29T09:20:27.608Z,24.0
2023-01-29T09:25:33.822Z,25.0
2023-01-29T09:30:39.199Z,24.0
2023-01-29T09:35:45.281Z,24.0
2023-01-29T09:40:51.474Z,24.0
2023-01-29T09:45:56.762Z,23.0
2023-01-29T09:51:02.923Z,24.0
2023-01-29T09:56:09.120Z,24.0
2023-01-29T10:01:15.452Z,24.0
2023-01-29T10:06:21.565Z,24.0
2023-01-29T10:11:27.757Z,24.0
2023-01-29T10:16:33.996Z,24.0
2023-01-29T10:21:40.163Z,25.0
2023-01-29T10:26:46.404Z,24.0
2023-01-29T10:31:52.713Z,23.0
2023-01-29T10:36:58.781Z,23.0
2023-01-29T10:42:04.998Z,24.0
2023-01-29T10:47:11.212Z,23.0
2023-01-29T10:52:17.409Z,23.0
2023-01-29T10:57:23.610Z,23.0
2023-01-29T11:02:29.833Z,23.0
2023-01-29T11:07:36.170Z,23.0
2023-01-29T11:12:42.246Z,22.0
2023-01-29T11:17:48.444Z,22.0
2023-01-29T11:22:54.646Z,21.0
2023-01-29T11:28:00.867Z,20.0
2023-01-29T11:33:06.114Z,20.0
2023-01-29T11:38:12.321Z,19.0
2023-01-29T11:43:17.534Z,20.0
2023-01-29T11:48:23.742Z,19.0
2023-01-29T11:53:29.954Z,19.0
2023-01-29T11:58:36.167Z,18.0
2023-01-29T12:03:42.376Z,19.0
2023-01-29T12:08:48.576Z,18.5
2023-01-29T12:13:54.781Z,17.5
2023-01-29T12:19:00.989Z,18.0
2023-01-29T12:24:07.199Z,18.0
2023-01-29T12:29:13.397Z,17.0
2023-01-29T12:34:19.607Z,17.0
2023-01-29T12:39:25.825Z,18.0
2023-01-29T12:44:32.025Z,17.0
2023-01-29T12:49:38.236Z,18.0
2023-01-29T12:54:44.463Z,18.0
2023-01-29T12:59:50.648Z,18.0
2023-01-29T13:04:56.861Z,19.0
2023-01-29T13:10:03.079Z,19.0
2023-01-29T13:15:09.267Z,20.0
2023-01-29T13:20:15.756Z,20.0
2023-01-29T13:25:21.684Z,20.0
2023-01-29T13:30:26.919Z,21.0
2023-01-29T13:35:33.152Z,21.0
2023-01-29T13:40:38.372Z,21.0
2023-01-29T13:45:44.673Z,21.0
2023-01-29T13:50:50.787Z,21.0
2023-01-29T13:55:57.034Z,21.0
2023-01-29T14:01:03.288Z,22.0
2023-01-29T14:06:09.416Z,22.0
2023-01-29T14:11:15.615Z,22.0
2023-01-29T14:16:21.845Z,22.0
2023-01-29T14:21:28.031Z,23.0
2023-01-29T14:26:34.394Z,23.0
2023-01-29T14:31:40.473Z,23.0
2023-01-29T14:36:46.646Z,23.0
2023-01-29T14:41:52.999Z,23.0
2023-01-29T14:46:59.069Z,23.0
2023-01-29T14:52:05.270Z,23.0
2023-01-29T14:57:11.488Z,24.0
2023-01-29T15:02:17.717Z,24.0
2023-01-29T15:07:23.895Z,24.0
2023-01-29T15:12:30.268Z,23.0
2023-01-29T15:17:36.360Z,24.0
2023-01-29T15:22:42.522Z,23.0
2023-01-29T15:27:47.753Z,23.0
2023-01-29T15:32:53.962Z,23.0
2023-01-29T15:37:59.211Z,23.0
2023-01-29T15:43:05.412Z,23.0
2023-01-29T15:48:11.620Z,23.0
2023-01-29T15:53:17.930Z,22.0
2023-01-29T15:58:24.049Z,23.0
2023-01-29T16:03:30.239Z,22.0
2023-01-29T16:08:36.452Z,22.0
2023-01-29T16:13:42.655Z,23.0
2023-01-29T16:18:59.501Z,21.0
2023-01-29T16:23:55.087Z,21.5
2023-01-29T16:29:01.281Z,22.0
2023-01-29T16:34:07.504Z,22.0
2023-01-29T16:39:13.697Z,22.0
2023-01-29T16:44:19.899Z,23.0
2023-01-29T16:49:26.213Z,22.0
2023-01-29T16:54:32.323Z,22.0
2023-01-29T16:59:38.531Z,23.0
2023-01-29T17:04:44.734Z,22.0
2023-01-29T17:09:50.941Z,22.0
2023-01-29T17:14:57.154Z,22.0
2023-01-29T17:20:03.358Z,21.0
2023-01-29T17:25:08.618Z,21.0
2023-01-29T17:30:14.797Z,21.0
2023-01-29T17:35:20.388Z,22.0
2023-01-29T17:40:26.248Z,21.0
2023-01-29T17:45:32.518Z,20.0
2023-01-29T17:50:38.663Z,20.0
2023-01-29T17:55:44.882Z,19.0
2023-01-29T18:00:51.095Z,19.0
2023-01-29T18:05:57.279Z,19.0
2023-01-29T18:11:03.507Z,19.0
2023-01-29T18:16:09.723Z,20.0
2023-01-29T18:21:15.902Z,18.0
2023-01-29T18:26:22.137Z,19.0
2023-01-29T18:31:28.347Z,19.0
2023-01-29T18:36:34.602Z,19.0
2023-01-29T18:41:40.738Z,20.0
2023-01-29T18:46:46.946Z,20.0
2023-01-29T18:51:53.154Z,20.0
2023-01-29T18:57:12.904Z,19.0
2023-01-29T19:02:04.676Z,19.0
2023-01-29T19:07:10.793Z,19.0
2023-01-29T19:12:17.003Z,19.0
2023-01-29T19:17:23.288Z,20.0
2023-01-29T19:22:28.442Z,19.0
2023-01-29T19:27:34.652Z,19.5
2023-01-29T19:32:39.898Z,20.0
2023-01-29T19:37:46.102Z,21.0
2023-01-29T19:42:52.312Z,21.0
2023-01-29T19:47:58.879Z,21.0
2023-01-29T19:53:04.717Z,21.0
2023-01-29T19:58:10.926Z,22.0
2023-01-29T20:03:17.133Z,21.0
2023-01-29T20:08:23.338Z,22.0
2023-01-29T20:13:29.554Z,22.0
2023-01-29T20:18:35.754Z,21.0
2023-01-29T20:23:42.682Z,23.0
2023-01-29T20:28:48.168Z,22.0
2023-01-29T20:33:54.413Z,22.0
2023-01-29T20:39:00.588Z,22.0
2023-01-29T20:44:06.797Z,22.0
2023-01-29T20:49:13.032Z,22.0
2023-01-29T20:54:19.207Z,23.0
2023-01-29T20:59:25.418Z,23.0
2023-01-29T21:04:31.624Z,23.0
2023-01-29T21:09:37.840Z,22.0
2023-01-29T21:14:44.036Z,22.0
2023-01-29T21:19:49.277Z,23.0
2023-01-29T21:24:55.476Z,23.0
2023-01-29T21:30:00.709Z,23.0
2023-01-29T21:35:06.925Z,23.0
2023-01-29T21:40:13.128Z,23.0
2023-01-29T21:45:19.339Z,22.5
2023-01-29T21:50:25.547Z,23.0
2023-01-29T21:55:31.875Z,23.0
2023-01-29T22:00:37.958Z,24.0
2023-01-29T22:05:44.179Z,23.0
2023-01-29T22:10:50.371Z,24.0
2023-01-29T22:15:56.583Z,23.0
2023-01-29T22:21:02.790Z,23.0
2023-01-29T22:26:09.220Z,24.5
2023-01-29T22:31:15.204Z,24.0
2023-01-29T22:36:21.458Z,25.0
2023-01-29T22:41:27.617Z,25.0
2023-01-29T22:46:33.948Z,25.0
2023-01-29T22:51:40.044Z,25.0
2023-01-29T22:56:46.238Z,25.0
2023-01-29T23:01:52.481Z,26.0
2023-01-29T23:06:58.655Z,26.0
2023-01-29T23:12:04.854Z,26.0
2023-01-29T23:17:10.088Z,27.0
2023-01-29T23:22:16.297Z,26.0
2023-01-29T23:27:21.565Z,26.0
2023-01-29T23:32:27.913Z,27.0
2023-01-29T23:37:33.948Z,26.5
2023-01-29T23:42:40.155Z,27.0
2023-01-29T23:47:46.363Z,26.0
2023-01-29T23:52:52.568Z,27.0
2023-01-29T23:57:58.780Z,27.0
